createdAt,value
2017-07-15T00:02:09.234Z,96059
2017-07-15T00:04:44.153Z,96065
2017-07-15T00:07:19.180Z,96058
2017-07-15T00:09:54.923Z,96068
2017-07-15T00:12:29.845Z,96066
2017-07-15T00:15:11.944Z,96065
2017-07-15T00:17:46.928Z,96067
2017-07-15T00:20:21.869Z,96070
2017-07-15T00:22:57.533Z,96076
2017-07-15T00:25:32.379Z,96076
2017-07-15T00:28:07.362Z,96079
2017-07-15T00:30:42.180Z,96085
2017-07-15T00:33:17.078Z,96081
2017-07-15T00:35:52.117Z,96092
2017-07-15T00:38:26.958Z,96103
2017-07-15T00:41:02.734Z,96106
2017-07-15T00:43:37.529Z,96119
2017-07-15T00:46:12.364Z,96117
2017-07-15T00:48:47.274Z,96033
2017-07-15T00:51:22.232Z,96102
2017-07-15T00:53:57.276Z,96111
2017-07-15T00:56:32.116Z,96115
2017-07-15T00:59:07.120Z,96109
2017-07-15T01:01:42.122Z,96109
2017-07-15T01:04:20.229Z,96110
2017-07-15T01:06:55.170Z,96122
2017-07-15T01:09:30.043Z,96123
2017-07-15T01:12:04.824Z,96119
2017-07-15T01:14:39.696Z,96108
2017-07-15T01:17:14.661Z,96108
2017-07-15T01:19:50.311Z,96115
2017-07-15T01:22:25.277Z,96114
2017-07-15T01:25:00.188Z,96117
2017-07-15T01:27:35.137Z,96121
2017-07-15T01:30:09.970Z,96121
2017-07-15T01:32:44.785Z,96122
2017-07-15T01:35:19.733Z,96109
2017-07-15T01:37:54.674Z,96106
2017-07-15T01:40:29.602Z,96112
2017-07-15T01:43:04.408Z,96103
2017-07-15T01:45:39.282Z,96103
2017-07-15T01:48:14.062Z,96106
2017-07-15T01:50:49.024Z,96113
2017-07-15T01:53:24.709Z,96119
2017-07-15T01:55:59.736Z,96123
2017-07-15T01:58:34.545Z,96114
2017-07-15T02:01:09.501Z,96121
2017-07-15T02:03:44.324Z,96122
2017-07-15T02:06:19.121Z,96039
2017-07-15T02:08:54.033Z,96123
2017-07-15T02:11:29.017Z,96118
2017-07-15T02:14:03.953Z,96117
2017-07-15T02:16:38.882Z,96115
2017-07-15T02:19:13.892Z,96106
2017-07-15T02:21:48.864Z,96111
2017-07-15T02:24:23.809Z,96117
2017-07-15T02:26:58.680Z,96116
2017-07-15T02:29:33.643Z,96140
2017-07-15T02:32:08.596Z,96123
2017-07-15T02:34:43.601Z,96123
2017-07-15T02:37:18.444Z,96127
2017-07-15T02:39:54.323Z,96134
2017-07-15T02:42:29.157Z,96139
2017-07-15T02:45:04.735Z,96120
2017-07-15T02:47:39.723Z,96147
2017-07-15T02:50:14.556Z,96142
2017-07-15T02:52:49.411Z,96141
2017-07-15T02:55:25.097Z,96142
2017-07-15T02:58:00.079Z,96135
2017-07-15T03:00:34.984Z,96148
2017-07-15T03:03:10.009Z,96145
2017-07-15T03:05:44.942Z,96147
2017-07-15T03:08:19.841Z,96142
2017-07-15T03:10:54.700Z,96149
2017-07-15T03:13:29.572Z,96154
2017-07-15T03:16:04.645Z,96159
2017-07-15T03:18:39.441Z,96162
2017-07-15T03:21:15.223Z,96163
2017-07-15T03:23:50.148Z,96161
2017-07-15T03:26:42.785Z,96167
2017-07-15T03:29:17.756Z,96162
2017-07-15T03:31:52.548Z,96173
2017-07-15T03:34:27.617Z,96167
2017-07-15T03:37:02.448Z,96176
2017-07-15T03:39:37.416Z,96182
2017-07-15T03:42:12.416Z,96181
2017-07-15T03:44:47.283Z,96177
2017-07-15T03:47:22.256Z,96184
2017-07-15T03:49:57.089Z,96189
2017-07-15T03:52:32.869Z,96194
2017-07-15T03:55:07.697Z,96190
2017-07-15T03:57:42.517Z,96196
2017-07-15T04:00:17.412Z,96195
2017-07-15T04:02:52.317Z,96198
2017-07-15T04:05:27.113Z,96197
2017-07-15T04:08:01.949Z,96206
2017-07-15T04:10:37.077Z,96211
2017-07-15T04:13:11.911Z,96210
2017-07-15T04:15:46.967Z,96205
2017-07-15T04:18:22.682Z,96370
2017-07-15T04:20:57.649Z,96206
2017-07-15T04:23:32.653Z,96219
2017-07-15T04:26:07.677Z,96239
2017-07-15T04:28:42.629Z,96209
2017-07-15T04:31:17.586Z,96213
2017-07-15T04:33:53.177Z,96215
2017-07-15T04:36:28.013Z,96219
2017-07-15T04:39:02.928Z,96219
2017-07-15T04:41:37.764Z,96223
2017-07-15T04:44:12.566Z,96213
2017-07-15T04:46:47.501Z,96219
2017-07-15T04:49:22.372Z,96223
2017-07-15T04:51:57.507Z,96222
2017-07-15T04:54:32.369Z,96234
2017-07-15T04:57:07.187Z,96235
2017-07-15T04:59:42.096Z,96238
2017-07-15T05:02:17.093Z,96241
2017-07-15T05:04:51.972Z,96236
2017-07-15T05:07:26.915Z,96237
2017-07-15T05:10:01.817Z,96233
2017-07-15T05:12:36.702Z,96239
2017-07-15T05:15:11.645Z,96235
2017-07-15T05:17:46.645Z,96236
2017-07-15T05:20:21.572Z,96240
2017-07-15T05:22:56.540Z,96242
2017-07-15T05:25:31.406Z,96246
2017-07-15T05:28:06.414Z,96246
2017-07-15T05:30:41.381Z,96252
2017-07-15T05:33:16.320Z,96250
2017-07-15T05:35:51.965Z,96251
2017-07-15T05:38:26.944Z,96248
2017-07-15T05:41:02.645Z,96254
2017-07-15T05:43:37.602Z,96254
2017-07-15T05:46:12.493Z,96281
2017-07-15T05:48:47.465Z,96256
2017-07-15T05:51:22.242Z,96270
2017-07-15T05:53:57.762Z,96261
2017-07-15T05:56:32.585Z,96254
2017-07-15T05:59:08.321Z,96256
2017-07-15T06:01:43.316Z,96262
2017-07-15T06:04:18.401Z,96277
2017-07-15T06:06:53.283Z,96268
2017-07-15T06:09:28.116Z,96186
2017-07-15T06:12:03.032Z,96283
2017-07-15T06:14:37.909Z,96292
2017-07-15T06:17:12.844Z,96284
2017-07-15T06:19:47.895Z,96288
2017-07-15T06:22:22.663Z,96278
2017-07-15T06:24:58.267Z,96285
2017-07-15T06:27:33.200Z,96272
2017-07-15T06:30:08.199Z,96278
2017-07-15T06:32:43.109Z,96285
2017-07-15T06:35:18.012Z,96286
2017-07-15T06:37:53.714Z,96286
2017-07-15T06:40:29.517Z,96280
2017-07-15T06:43:04.469Z,96288
2017-07-15T06:45:39.325Z,96289
2017-07-15T06:48:20.209Z,96294
2017-07-15T06:50:57.021Z,96293
2017-07-15T06:53:32.730Z,96293
2017-07-15T06:56:07.705Z,96289
2017-07-15T06:58:42.686Z,96295
2017-07-15T07:01:17.605Z,96308
2017-07-15T07:03:52.495Z,96295
2017-07-15T07:06:27.483Z,96302
2017-07-15T07:09:02.365Z,96331
2017-07-15T07:11:37.348Z,96306
2017-07-15T07:14:12.405Z,96306
2017-07-15T07:16:47.344Z,96342
2017-07-15T07:19:22.193Z,96306
2017-07-15T07:21:57.104Z,96309
2017-07-15T07:24:35.592Z,96314
2017-07-15T07:27:11.565Z,96309
2017-07-15T07:29:46.523Z,96312
2017-07-15T07:32:21.368Z,96318
2017-07-15T07:34:57.050Z,96305
2017-07-15T07:37:32.189Z,96300
2017-07-15T07:40:07.068Z,96302
2017-07-15T07:42:41.881Z,96304
2017-07-15T07:45:17.702Z,96305
2017-07-15T07:47:52.571Z,96296
2017-07-15T07:50:27.370Z,96306
2017-07-15T07:53:02.232Z,96321
2017-07-15T07:55:40.026Z,96313
2017-07-15T07:58:15.037Z,96318
2017-07-15T08:00:49.902Z,96314
2017-07-15T08:03:24.934Z,96319
2017-07-15T08:06:00.557Z,96320
2017-07-15T08:08:35.482Z,96313
2017-07-15T08:11:10.356Z,96320
2017-07-15T08:13:45.350Z,96320
2017-07-15T08:16:20.365Z,96316
2017-07-15T08:18:55.431Z,96327
2017-07-15T08:21:30.440Z,96325
2017-07-15T08:24:05.432Z,96329
2017-07-15T08:26:40.427Z,96333
2017-07-15T08:29:15.373Z,96320
2017-07-15T08:31:50.541Z,96332
2017-07-15T08:34:25.508Z,96326
2017-07-15T08:37:00.680Z,96320
2017-07-15T08:39:35.709Z,96329
2017-07-15T08:42:17.889Z,96335
2017-07-15T08:45:00.421Z,96329
2017-07-15T08:47:39.870Z,96336
2017-07-15T08:50:15.638Z,96331
2017-07-15T08:52:53.019Z,95817
2017-07-15T08:55:28.028Z,96324
2017-07-15T08:58:03.134Z,96336
2017-07-15T09:00:38.185Z,96333
2017-07-15T09:03:13.227Z,96340
2017-07-15T09:05:48.090Z,96344
2017-07-15T09:08:26.629Z,96339
2017-07-15T09:11:02.481Z,96334
2017-07-15T09:13:37.333Z,96329
2017-07-15T09:16:26.462Z,96342
2017-07-15T09:19:12.767Z,96356
2017-07-15T09:21:51.748Z,96351
2017-07-15T09:24:26.974Z,96360
2017-07-15T09:27:01.929Z,96362
2017-07-15T09:29:36.829Z,96364
2017-07-15T09:32:12.036Z,96356
2017-07-15T09:34:55.338Z,96368
2017-07-15T09:37:30.303Z,96364
2017-07-15T09:40:05.285Z,96362
2017-07-15T09:42:40.341Z,96363
2017-07-15T09:45:15.371Z,96363
2017-07-15T09:47:50.365Z,96369
2017-07-15T09:50:25.444Z,96376
2017-07-15T09:53:00.615Z,96373
2017-07-15T09:55:36.609Z,96374
2017-07-15T09:58:11.780Z,95201
2017-07-15T10:00:48.758Z,96390
2017-07-15T10:03:24.215Z,96397
2017-07-15T10:05:59.203Z,96400
2017-07-15T10:08:35.138Z,96397
2017-07-15T10:11:10.097Z,96401
2017-07-15T10:13:45.083Z,96397
2017-07-15T10:16:19.881Z,96399
2017-07-15T10:18:54.918Z,96390
2017-07-15T10:21:29.879Z,96395
2017-07-15T10:24:04.712Z,96389
2017-07-15T10:26:40.499Z,96388
2017-07-15T10:29:15.402Z,96389
2017-07-15T10:31:55.090Z,96390
2017-07-15T10:34:30.012Z,96395
2017-07-15T10:37:04.897Z,96396
2017-07-15T10:39:39.922Z,96394
2017-07-15T10:42:20.453Z,96393
2017-07-15T10:44:55.541Z,96394
2017-07-15T10:47:30.616Z,96392
2017-07-15T10:50:05.652Z,96396
2017-07-15T10:52:40.519Z,96404
2017-07-15T10:55:15.477Z,96399
2017-07-15T10:57:50.305Z,96407
2017-07-15T11:00:25.307Z,96405
2017-07-15T11:03:08.774Z,96398
2017-07-15T11:05:43.706Z,96392
2017-07-15T11:08:18.625Z,96399
2017-07-15T11:10:53.690Z,96393
2017-07-15T11:13:28.613Z,96389
2017-07-15T11:16:03.609Z,96389
2017-07-15T11:18:38.400Z,96390
2017-07-15T11:21:13.264Z,96398
2017-07-15T11:23:48.173Z,96401
2017-07-15T11:26:23.085Z,96400
2017-07-15T11:29:02.773Z,96401
2017-07-15T11:31:37.745Z,96409
2017-07-15T11:34:12.712Z,96406
2017-07-15T11:36:47.633Z,96403
2017-07-15T11:39:24.514Z,96400
2017-07-15T11:41:59.456Z,96400
2017-07-15T11:44:34.254Z,96395
2017-07-15T11:47:09.071Z,96440
2017-07-15T11:49:44.026Z,96411
2017-07-15T11:52:19.455Z,96415
2017-07-15T11:54:54.486Z,96423
2017-07-15T11:57:29.529Z,96424
2017-07-15T12:00:04.633Z,96418
2017-07-15T12:02:39.620Z,96412
2017-07-15T12:05:14.563Z,96413
2017-07-15T12:07:49.500Z,96407
2017-07-15T12:10:25.089Z,96407
2017-07-15T12:13:00.000Z,96408
2017-07-15T12:15:34.873Z,96416
2017-07-15T12:18:09.826Z,96416
2017-07-15T12:20:44.660Z,96418
2017-07-15T12:23:20.464Z,96422
2017-07-15T12:25:55.390Z,96432
2017-07-15T12:28:30.450Z,96459
2017-07-15T12:31:05.323Z,96431
2017-07-15T12:33:40.112Z,96431
2017-07-15T12:36:15.065Z,96436
2017-07-15T12:38:53.180Z,96430
2017-07-15T12:41:28.176Z,96423
2017-07-15T12:44:03.968Z,96427
2017-07-15T12:46:38.980Z,96427
2017-07-15T12:49:13.806Z,96423
2017-07-15T12:51:48.784Z,96426
2017-07-15T12:54:23.773Z,96419
2017-07-15T12:56:58.621Z,96424
2017-07-15T12:59:33.644Z,96423
2017-07-15T13:02:08.666Z,96429
2017-07-15T13:04:43.618Z,96424
2017-07-15T13:07:18.529Z,96426
2017-07-15T13:09:53.554Z,96432
2017-07-15T13:12:28.462Z,96439
2017-07-15T13:15:03.449Z,96445
2017-07-15T13:17:38.273Z,96445
2017-07-15T13:20:13.177Z,96438
2017-07-15T13:22:48.144Z,96442
2017-07-15T13:25:23.708Z,96439
2017-07-15T13:27:58.647Z,96445
2017-07-15T13:30:33.671Z,96443
2017-07-15T13:33:08.544Z,96442
2017-07-15T13:35:43.535Z,96288
2017-07-15T13:38:19.248Z,96386
2017-07-15T13:40:54.270Z,96448
2017-07-15T13:43:29.216Z,96445
2017-07-15T13:46:04.230Z,96467
2017-07-15T13:48:39.303Z,96450
2017-07-15T13:51:14.245Z,96449
2017-07-15T13:53:49.242Z,96448
2017-07-15T13:56:24.289Z,96444
2017-07-15T13:58:59.102Z,96441
2017-07-15T14:01:34.041Z,96452
2017-07-15T14:04:08.888Z,96470
2017-07-15T14:06:43.743Z,96450
2017-07-15T14:09:19.360Z,96450
2017-07-15T14:11:54.276Z,96451
2017-07-15T14:14:29.225Z,96459
2017-07-15T14:17:07.689Z,96468
2017-07-15T14:19:42.708Z,96464
2017-07-15T14:22:17.575Z,96469
2017-07-15T14:24:52.371Z,96462
2017-07-15T14:27:27.464Z,96472
2017-07-15T14:30:02.301Z,96472
2017-07-15T14:32:37.312Z,96469
2017-07-15T14:35:12.126Z,96468
2017-07-15T14:37:47.897Z,96468
2017-07-15T14:40:23.957Z,96457
2017-07-15T14:42:58.882Z,96459
2017-07-15T14:45:41.102Z,96460
2017-07-15T14:48:16.104Z,96454
2017-07-15T14:50:51.034Z,96457
2017-07-15T14:53:26.005Z,96452
2017-07-15T14:56:00.806Z,96458
2017-07-15T14:58:35.757Z,96464
2017-07-15T15:01:10.661Z,96451
2017-07-15T15:03:45.646Z,96452
2017-07-15T15:06:20.593Z,96449
2017-07-15T15:08:55.393Z,96443
2017-07-15T15:11:30.310Z,96439
2017-07-15T15:14:05.221Z,96445
2017-07-15T15:16:40.157Z,96443
2017-07-15T15:19:15.117Z,96450
2017-07-15T15:21:50.088Z,96450
2017-07-15T15:24:25.696Z,96476
2017-07-15T15:27:00.713Z,96445
2017-07-15T15:29:35.632Z,96446
2017-07-15T15:32:10.645Z,96451
2017-07-15T15:34:45.613Z,96452
2017-07-15T15:37:20.429Z,96454
2017-07-15T15:39:57.344Z,96468
2017-07-15T15:42:32.455Z,96461
2017-07-15T15:45:08.475Z,96454
2017-07-15T15:47:43.402Z,96457
2017-07-15T15:50:18.392Z,96465
2017-07-15T15:52:53.314Z,96463
2017-07-15T15:55:28.187Z,96470
2017-07-15T15:58:03.133Z,96473
2017-07-15T16:00:38.102Z,96465
2017-07-15T16:03:13.027Z,96459
2017-07-15T16:05:47.970Z,96463
2017-07-15T16:08:22.872Z,96460
2017-07-15T16:10:57.693Z,96458
2017-07-15T16:13:32.558Z,96468
2017-07-15T16:16:07.504Z,96468
2017-07-15T16:18:42.294Z,96462
2017-07-15T16:21:17.149Z,96459
2017-07-15T16:23:52.104Z,96486
2017-07-15T16:26:26.988Z,96458
2017-07-15T16:29:02.980Z,96460
2017-07-15T16:31:46.172Z,96453
2017-07-15T16:34:21.059Z,96456
2017-07-15T16:40:03.599Z,96457
2017-07-15T16:45:49.137Z,96469
2017-07-15T16:48:24.017Z,96465
2017-07-15T16:51:00.009Z,96465
2017-07-15T16:53:36.145Z,96473
2017-07-15T16:56:10.949Z,96473
2017-07-15T16:58:51.357Z,96474
2017-07-15T17:01:32.102Z,96473
2017-07-15T17:04:12.194Z,96475
2017-07-15T17:06:47.178Z,96485
2017-07-15T17:09:23.168Z,96488
2017-07-15T17:11:58.060Z,96478
2017-07-15T17:14:38.408Z,96486
2017-07-15T17:17:14.138Z,96478
2017-07-15T17:19:50.945Z,96478
2017-07-15T17:22:28.820Z,96477
2017-07-15T17:25:03.865Z,96468
2017-07-15T17:27:38.698Z,96474
2017-07-15T17:30:13.680Z,96469
2017-07-15T17:32:49.088Z,96473
2017-07-15T17:35:23.892Z,96472
2017-07-15T17:38:04.679Z,96488
2017-07-15T17:40:39.557Z,96479
2017-07-15T17:43:15.328Z,96484
2017-07-15T17:45:51.134Z,96495
2017-07-15T17:48:26.150Z,96496
2017-07-15T17:51:00.937Z,96497
2017-07-15T17:53:39.437Z,96494
2017-07-15T17:56:16.348Z,96490
2017-07-15T17:58:51.379Z,96489
2017-07-15T18:01:26.191Z,96488
2017-07-15T18:04:01.154Z,96496
2017-07-15T18:06:36.090Z,96493
2017-07-15T18:09:11.046Z,96477
2017-07-15T18:11:46.049Z,96489
2017-07-15T18:14:21.980Z,96483
2017-07-15T18:16:56.756Z,96480
2017-07-15T18:19:32.334Z,96483
2017-07-15T18:22:07.215Z,96483
2017-07-15T18:24:42.067Z,96478
2017-07-15T18:27:16.954Z,96484
2017-07-15T18:29:52.040Z,96487
2017-07-15T18:32:27.990Z,96500
2017-07-15T18:35:04.448Z,96495
2017-07-15T18:37:39.499Z,96497
2017-07-15T18:40:19.358Z,96492
2017-07-15T18:42:54.321Z,96503
2017-07-15T18:45:29.273Z,96498
2017-07-15T18:48:05.125Z,96497
2017-07-15T18:50:40.019Z,96507
2017-07-15T18:53:15.904Z,96508
2017-07-15T18:55:50.778Z,96539
2017-07-15T18:58:26.417Z,96513
2017-07-15T19:01:01.424Z,96517
2017-07-15T19:03:42.093Z,96532
2017-07-15T19:06:17.270Z,96524
2017-07-15T19:08:52.299Z,96526
2017-07-15T19:11:27.227Z,96532
2017-07-15T19:14:02.482Z,96529
2017-07-15T19:16:42.809Z,96535
2017-07-15T19:19:17.780Z,96532
2017-07-15T19:21:54.754Z,96535
2017-07-15T19:24:31.795Z,96532
2017-07-15T19:27:06.680Z,96538
2017-07-15T19:29:44.168Z,96538
2017-07-15T19:32:20.185Z,96539
2017-07-15T19:34:55.821Z,96541
2017-07-15T19:37:37.751Z,96556
2017-07-15T19:40:13.386Z,96557
2017-07-15T19:42:49.520Z,96556
2017-07-15T19:45:24.764Z,96563
2017-07-15T19:47:59.567Z,96567
2017-07-15T19:50:34.694Z,96573
2017-07-15T19:53:11.725Z,96574
2017-07-15T19:55:47.058Z,96583
2017-07-15T19:58:22.125Z,96581
2017-07-15T20:00:58.016Z,96587
2017-07-15T20:03:34.198Z,96604
2017-07-15T20:06:09.205Z,96599
2017-07-15T20:08:44.302Z,96597
2017-07-15T20:11:19.413Z,96599
2017-07-15T20:13:54.414Z,96597
2017-07-15T20:16:29.361Z,96599
2017-07-15T20:19:08.085Z,96603
2017-07-15T20:21:46.792Z,96607
2017-07-15T20:24:21.735Z,96598
2017-07-15T20:26:56.768Z,96602
2017-07-15T20:29:31.601Z,96607
2017-07-15T20:32:10.590Z,96612
2017-07-15T20:34:46.152Z,96592
2017-07-15T20:37:25.120Z,96602
2017-07-15T20:40:00.076Z,96603
2017-07-15T20:42:39.768Z,96615
2017-07-15T20:45:14.770Z,96609
2017-07-15T20:47:49.808Z,96609
2017-07-15T20:50:24.728Z,96622
2017-07-15T20:53:13.544Z,96606
2017-07-15T20:55:48.393Z,96606
2017-07-15T20:58:24.224Z,96612
2017-07-15T21:01:04.531Z,96598
2017-07-15T21:03:39.510Z,96614
2017-07-15T21:06:14.467Z,96617
2017-07-15T21:08:49.419Z,96616
2017-07-15T21:11:24.428Z,96629
2017-07-15T21:13:59.304Z,96624
2017-07-15T21:16:34.163Z,96624
2017-07-15T21:19:09.121Z,96623
2017-07-15T21:21:44.058Z,96619
2017-07-15T21:24:18.884Z,96621
2017-07-15T21:26:57.943Z,96622
2017-07-15T21:29:34.854Z,96632
2017-07-15T21:32:09.828Z,96629
2017-07-15T21:34:44.630Z,96628
2017-07-15T21:37:20.209Z,96619
2017-07-15T21:39:55.077Z,96620
2017-07-15T21:42:35.648Z,96624
2017-07-15T21:45:11.295Z,96651
2017-07-15T21:47:47.308Z,96620
2017-07-15T21:50:22.149Z,96627
2017-07-15T21:52:57.117Z,96621
2017-07-15T21:55:31.909Z,96649
2017-07-15T21:58:06.742Z,96623
2017-07-15T22:01:09.639Z,96621
2017-07-15T22:03:44.465Z,96639
2017-07-15T22:06:20.123Z,96622
2017-07-15T22:08:55.187Z,96623
2017-07-15T22:11:30.037Z,96616
2017-07-15T22:14:05.144Z,96616
2017-07-15T22:16:40.027Z,96624
2017-07-15T22:19:15.749Z,96622
2017-07-15T22:22:05.012Z,96627
2017-07-15T22:24:39.934Z,96641
2017-07-15T22:27:14.825Z,96621
2017-07-15T22:29:49.709Z,96625
2017-07-15T22:32:24.608Z,96623
2017-07-15T22:34:59.995Z,96631
2017-07-15T22:37:34.924Z,96631
2017-07-15T22:40:09.810Z,96618
2017-07-15T22:42:44.791Z,96631
2017-07-15T22:45:19.606Z,96625
2017-07-15T22:47:54.594Z,96626
2017-07-15T22:50:29.551Z,96620
2017-07-15T22:53:04.509Z,96637
2017-07-15T22:55:39.501Z,96633
2017-07-15T22:58:19.847Z,96630
2017-07-15T23:00:55.698Z,96627
2017-07-15T23:03:31.021Z,96632
2017-07-15T23:06:09.584Z,96631
2017-07-15T23:08:45.393Z,96635
2017-07-15T23:11:22.106Z,96630
2017-07-15T23:14:00.833Z,96635
2017-07-15T23:16:35.757Z,96641
2017-07-15T23:19:12.490Z,96641
2017-07-15T23:21:48.347Z,96640
2017-07-15T23:24:26.259Z,96640
2017-07-15T23:27:01.144Z,96670
2017-07-15T23:29:36.869Z,96637
2017-07-15T23:32:12.205Z,96644
2017-07-15T23:34:50.716Z,96641
2017-07-15T23:37:25.795Z,96637
2017-07-15T23:40:00.966Z,96632
2017-07-15T23:42:39.410Z,96629
2017-07-15T23:45:15.394Z,96627
2017-07-15T23:47:52.280Z,96633
2017-07-15T23:50:27.689Z,96630
2017-07-15T23:53:02.713Z,96635
2017-07-15T23:55:37.693Z,96624
2017-07-15T23:58:12.717Z,96626
